createdAt,value
2022-12-23T00:00:19.181Z,7.95
2022-12-23T00:03:45.548Z,9.23
2022-12-23T00:06:51.110Z,8.85
2022-12-23T00:09:56.723Z,9.05
2022-12-23T00:13:13.977Z,9.32
2022-12-23T00:16:22.605Z,8.80
2022-12-23T00:19:30.167Z,8.95
2022-12-23T00:22:48.223Z,9.90
2022-12-23T00:25:53.760Z,8.32
2022-12-23T00:29:00.679Z,7.15
2022-12-23T00:32:08.443Z,9.13
2022-12-23T00:35:14.079Z,10.60
2022-12-23T00:38:39.518Z,8.88
2022-12-23T00:41:57.267Z,8.25
2022-12-23T00:45:16.049Z,9.10
2022-12-23T00:48:36.832Z,8.07
2022-12-23T00:51:42.941Z,8.48
2022-12-23T00:54:48.217Z,9.25
2022-12-23T00:57:53.377Z,9.48
2022-12-23T01:01:12.293Z,9.90
2022-12-23T01:04:32.639Z,8.63
2022-12-23T01:07:39.463Z,7.70
2022-12-23T01:10:45.828Z,9.52
2022-12-23T01:13:59.334Z,6.70
2022-12-23T01:17:04.985Z,8.55
2022-12-23T01:20:14.569Z,8.45
2022-12-23T01:23:19.847Z,11.50
2022-12-23T01:26:25.427Z,9.45
2022-12-23T01:29:33.234Z,9.40
2022-12-23T01:32:39.463Z,10.20
2022-12-23T01:35:47.699Z,10.73
2022-12-23T01:38:54.772Z,9.63
2022-12-23T01:42:12.154Z,8.90
2022-12-23T01:45:19.051Z,9.38
2022-12-23T01:48:25.634Z,9.75
2022-12-23T01:51:34.757Z,10.20
2022-12-23T01:54:40.322Z,10.88
2022-12-23T01:57:46.081Z,11.32
2022-12-23T02:01:05.139Z,11.05
2022-12-23T02:04:12.266Z,11.82
2022-12-23T02:07:33.923Z,11.02
2022-12-23T02:10:47.166Z,10.30
2022-12-23T02:14:07.030Z,11.47
2022-12-23T02:17:24.905Z,10.65
2022-12-23T02:20:49.186Z,10.40
2022-12-23T02:24:07.247Z,8.60
2022-12-23T02:27:15.297Z,8.57
2022-12-23T02:30:41.917Z,11.23
2022-12-23T02:33:52.427Z,9.95
2022-12-23T02:37:04.521Z,11.45
2022-12-23T02:40:12.234Z,9.90
2022-12-23T02:43:18.953Z,11.43
2022-12-23T02:46:29.238Z,11.30
2022-12-23T02:49:37.248Z,12.23
2022-12-23T02:52:44.310Z,8.55
2022-12-23T02:55:51.567Z,11.63
2022-12-23T02:59:03.117Z,10.75
2022-12-23T03:02:11.661Z,11.93
2022-12-23T03:05:30.062Z,12.45
2022-12-23T03:08:38.517Z,13.32
2022-12-23T03:11:49.589Z,13.23
2022-12-23T03:15:03.869Z,10.63
2022-12-23T03:18:15.209Z,12.68
2022-12-23T03:21:24.439Z,12.20
2022-12-23T03:24:35.100Z,13.48
2022-12-23T03:27:44.408Z,11.88
2022-12-23T03:30:51.169Z,9.90
2022-12-23T03:34:01.244Z,12.85
2022-12-23T03:37:10.459Z,10.43
2022-12-23T03:40:21.513Z,12.65
2022-12-23T03:43:29.619Z,15.55
2022-12-23T03:46:37.793Z,16.08
2022-12-23T03:49:46.955Z,13.85
2022-12-23T03:52:54.987Z,16.80
2022-12-23T03:56:02.575Z,15.52
2022-12-23T03:59:11.437Z,13.85
2022-12-23T04:02:21.560Z,16.17
2022-12-23T04:05:38.571Z,11.95
2022-12-23T04:08:45.990Z,17.10
2022-12-23T04:11:51.788Z,16.70
2022-12-23T04:14:59.504Z,18.70
2022-12-23T04:18:05.359Z,14.35
2022-12-23T04:21:12.923Z,15.50
2022-12-23T04:24:18.522Z,13.25
2022-12-23T04:27:23.573Z,16.08
2022-12-23T04:30:34.727Z,13.82
2022-12-23T04:33:39.897Z,16.67
2022-12-23T04:36:48.307Z,17.40
2022-12-23T04:39:53.204Z,18.10
2022-12-23T04:43:01.287Z,15.52
2022-12-23T04:46:08.977Z,14.32
2022-12-23T04:49:14.290Z,14.18
2022-12-23T04:52:22.133Z,12.55
2022-12-23T04:55:27.839Z,17.63
2022-12-23T04:58:36.500Z,16.05
2022-12-23T05:01:42.733Z,19.35
2022-12-23T05:04:50.183Z,18.25
2022-12-23T05:08:05.023Z,17.02
2022-12-23T05:11:11.558Z,20.27
2022-12-23T05:14:17.191Z,15.57
2022-12-23T05:17:22.139Z,20.13
2022-12-23T05:20:29.993Z,18.08
2022-12-23T05:23:37.855Z,17.45
2022-12-23T05:26:47.713Z,13.88
2022-12-23T05:29:52.851Z,15.55
2022-12-23T05:32:58.616Z,15.88
2022-12-23T05:36:04.213Z,18.98
2022-12-23T05:39:12.483Z,20.98
2022-12-23T05:42:20.649Z,22.25
2022-12-23T05:45:26.111Z,15.10
2022-12-23T05:48:31.075Z,20.52
2022-12-23T05:51:36.489Z,22.67
2022-12-23T05:54:43.936Z,17.15
2022-12-23T05:57:49.280Z,22.13
2022-12-23T06:00:54.209Z,13.93
2022-12-23T06:03:59.559Z,21.52
2022-12-23T06:07:05.960Z,21.20
2022-12-23T06:10:14.312Z,20.15
2022-12-23T06:13:19.194Z,20.50
2022-12-23T06:16:24.463Z,22.23
2022-12-23T06:19:29.628Z,16.63
2022-12-23T06:22:34.843Z,19.80
2022-12-23T06:25:42.645Z,17.80
2022-12-23T06:28:50.549Z,19.63
2022-12-23T06:31:55.539Z,18.38
2022-12-23T06:35:00.857Z,18.92
2022-12-23T06:38:11.677Z,17.35
2022-12-23T06:41:20.978Z,17.97
2022-12-23T06:44:25.849Z,19.88
2022-12-23T06:47:31.076Z,12.15
2022-12-23T06:50:35.906Z,17.08
2022-12-23T06:53:41.395Z,19.45
2022-12-23T06:56:48.938Z,18.75
2022-12-23T06:59:54.148Z,21.52
2022-12-23T07:02:59.212Z,18.70
2022-12-23T07:06:04.653Z,17.02
2022-12-23T07:09:09.673Z,16.88
2022-12-23T07:12:17.612Z,17.63
2022-12-23T07:15:22.507Z,20.73
2022-12-23T07:18:28.155Z,20.88
2022-12-23T07:21:33.088Z,21.63
2022-12-23T07:24:38.301Z,23.10
2022-12-23T07:27:45.752Z,18.20
2022-12-23T07:30:50.933Z,21.00
2022-12-23T07:33:55.778Z,18.90
2022-12-23T07:37:01.108Z,22.60
2022-12-23T07:40:08.768Z,21.98
2022-12-23T07:43:16.869Z,22.05
2022-12-23T07:46:21.839Z,22.23
2022-12-23T07:49:27.426Z,21.88
2022-12-23T07:52:32.672Z,25.33
2022-12-23T07:55:38.058Z,26.13
2022-12-23T07:58:47.853Z,25.77
2022-12-23T08:01:53.237Z,20.75
2022-12-23T08:04:58.276Z,26.33
2022-12-23T08:08:03.970Z,27.00
2022-12-23T08:11:10.517Z,27.85
2022-12-23T08:14:18.303Z,24.92
2022-12-23T08:17:23.878Z,26.60
2022-12-23T08:20:29.348Z,23.08
2022-12-23T08:23:34.943Z,24.98
2022-12-23T08:26:40.309Z,18.52
2022-12-23T08:29:47.707Z,25.42
2022-12-23T08:32:52.938Z,22.13
2022-12-23T08:35:57.807Z,23.65
2022-12-23T08:39:05.173Z,24.90
2022-12-23T08:42:10.007Z,21.75
2022-12-23T08:45:18.868Z,19.33
2022-12-23T08:48:23.774Z,21.75
2022-12-23T08:51:29.499Z,24.65
2022-12-23T08:54:34.418Z,22.75
2022-12-23T08:57:39.694Z,24.02
2022-12-23T09:00:47.151Z,22.52
2022-12-23T09:03:53.471Z,22.85
2022-12-23T09:06:58.412Z,22.98
2022-12-23T09:10:03.785Z,23.92
2022-12-23T09:13:10.618Z,20.77
2022-12-23T09:16:18.893Z,23.42
2022-12-23T09:19:23.756Z,20.75
2022-12-23T09:22:28.974Z,21.50
2022-12-23T09:25:33.885Z,23.15
2022-12-23T09:28:41.467Z,22.67
2022-12-23T09:31:49.332Z,22.95
2022-12-23T09:34:54.645Z,24.25
2022-12-23T09:38:01.909Z,21.52
2022-12-23T09:41:13.085Z,19.73
2022-12-23T09:44:23.955Z,20.35
2022-12-23T09:47:32.598Z,21.27
2022-12-23T09:50:37.600Z,22.25
2022-12-23T09:53:48.506Z,20.33
2022-12-23T09:56:55.677Z,21.70
2022-12-23T10:00:05.833Z,20.70
2022-12-23T10:03:19.706Z,20.98
2022-12-23T10:06:27.383Z,18.40
2022-12-23T10:09:36.605Z,22.08
2022-12-23T10:12:43.697Z,20.55
2022-12-23T10:15:50.944Z,18.00
2022-12-23T10:19:02.324Z,18.70
2022-12-23T10:22:08.967Z,15.40
2022-12-23T10:25:17.066Z,13.63
2022-12-23T10:28:21.986Z,18.80
2022-12-23T10:31:40.266Z,16.13
2022-12-23T10:34:54.031Z,18.02
2022-12-23T10:38:01.913Z,18.65
2022-12-23T10:41:13.670Z,16.85
2022-12-23T10:44:33.723Z,17.63
2022-12-23T10:47:44.453Z,15.57
2022-12-23T10:51:04.275Z,15.38
2022-12-23T10:54:12.659Z,16.40
2022-12-23T10:57:18.412Z,14.52
2022-12-23T11:00:24.284Z,15.90
2022-12-23T11:03:31.927Z,15.95
2022-12-23T11:06:41.247Z,15.95
2022-12-23T11:09:48.719Z,13.13
2022-12-23T11:12:54.500Z,14.93
2022-12-23T11:16:14.092Z,14.40
2022-12-23T11:19:19.127Z,16.70
2022-12-23T11:22:28.224Z,12.18
2022-12-23T11:25:34.927Z,14.88
2022-12-23T11:28:41.069Z,13.90
2022-12-23T11:31:46.385Z,14.80
2022-12-23T11:34:53.734Z,11.38
2022-12-23T11:38:01.803Z,17.13
2022-12-23T11:41:10.744Z,15.10
2022-12-23T11:44:22.173Z,16.38
2022-12-23T11:47:32.118Z,13.38
2022-12-23T11:50:37.818Z,15.73
2022-12-23T11:53:48.128Z,16.15
2022-12-23T11:56:54.212Z,16.60
2022-12-23T12:00:00.846Z,14.23
2022-12-23T12:03:07.836Z,14.05
2022-12-23T12:06:16.471Z,13.05
2022-12-23T12:09:26.674Z,13.18
2022-12-23T12:12:32.788Z,13.90
2022-12-23T12:15:41.536Z,16.15
2022-12-23T12:18:53.632Z,15.10
2022-12-23T12:22:05.041Z,14.25
2022-12-23T12:25:20.570Z,15.15
2022-12-23T12:28:27.495Z,12.85
2022-12-23T12:31:34.942Z,11.98
2022-12-23T12:34:44.436Z,14.60
2022-12-23T12:37:51.659Z,14.93
2022-12-23T12:41:01.821Z,11.93
2022-12-23T12:44:10.679Z,13.65
2022-12-23T12:47:44.493Z,12.10
2022-12-23T12:50:44.754Z,10.55
2022-12-23T12:54:02.760Z,10.15
2022-12-23T12:57:17.222Z,9.98
2022-12-23T13:00:23.222Z,12.43
2022-12-23T13:03:36.204Z,9.02
2022-12-23T13:06:46.677Z,7.80
2022-12-23T13:09:56.984Z,9.05
2022-12-23T13:13:10.707Z,10.35
2022-12-23T13:16:20.766Z,10.38
2022-12-23T13:19:30.459Z,8.52
2022-12-23T13:22:38.726Z,7.80
2022-12-23T13:25:45.664Z,6.75
2022-12-23T13:28:57.841Z,7.05
2022-12-23T13:32:06.846Z,6.10
2022-12-23T13:35:19.844Z,8.95
2022-12-23T13:38:31.508Z,7.47
2022-12-23T13:41:39.704Z,6.05
2022-12-23T13:44:49.792Z,5.07
2022-12-23T13:48:05.193Z,6.63
2022-12-23T13:51:15.838Z,9.35
2022-12-23T13:54:24.833Z,9.30
2022-12-23T13:57:34.996Z,8.02
2022-12-23T14:00:45.397Z,6.35
2022-12-23T14:03:51.314Z,6.28
2022-12-23T14:06:59.845Z,5.30
2022-12-23T14:10:13.000Z,5.63
2022-12-23T14:42:35.760Z,2.78
2022-12-23T14:45:45.046Z,3.90
2022-12-23T14:49:37.458Z,3.47
2022-12-23T14:52:44.680Z,4.70
2022-12-23T14:59:46.152Z,3.15
2022-12-23T15:10:01.392Z,1.90
2022-12-23T15:13:16.086Z,3.15
2022-12-23T15:23:02.899Z,3.30
2022-12-23T15:26:08.801Z,2.92
2022-12-23T15:29:15.230Z,2.30
2022-12-23T15:32:20.572Z,2.70
2022-12-23T15:35:27.036Z,3.17
2022-12-23T15:38:37.706Z,2.78
2022-12-23T15:41:46.672Z,2.05
2022-12-23T15:44:52.323Z,2.10
2022-12-23T15:47:57.358Z,2.25
2022-12-23T15:51:05.455Z,1.85
2022-12-23T15:54:21.851Z,2.17
2022-12-23T15:57:28.880Z,1.80
2022-12-23T16:00:38.973Z,1.90
2022-12-23T16:03:46.429Z,1.90
2022-12-23T16:06:58.418Z,1.45
2022-12-23T16:10:07.914Z,1.67
2022-12-23T16:13:19.093Z,1.83
2022-12-23T16:16:33.534Z,1.17
2022-12-23T16:19:42.381Z,1.15
2022-12-23T16:22:51.296Z,1.45
2022-12-23T16:25:58.763Z,1.40
2022-12-23T16:29:04.258Z,1.60
2022-12-23T16:35:29.200Z,1.88
2022-12-23T16:38:37.494Z,1.63
2022-12-23T16:41:45.108Z,1.67
2022-12-23T16:44:51.455Z,1.67
2022-12-23T16:47:59.662Z,1.27
2022-12-23T16:51:06.543Z,1.50
2022-12-23T16:54:15.247Z,1.27
2022-12-23T16:57:23.360Z,1.55
2022-12-23T17:00:28.236Z,1.23
2022-12-23T17:03:33.911Z,1.85
2022-12-23T17:09:59.814Z,1.33
2022-12-23T17:13:07.395Z,1.40
2022-12-23T17:16:16.746Z,1.48
2022-12-23T17:19:28.476Z,1.23
2022-12-23T17:22:35.601Z,1.40
2022-12-23T17:25:40.420Z,1.48
2022-12-23T17:28:48.551Z,1.63
2022-12-23T17:31:56.077Z,1.45
2022-12-23T17:35:01.440Z,1.85
2022-12-23T17:38:12.731Z,1.90
2022-12-23T17:41:20.914Z,1.58
2022-12-23T17:44:28.373Z,1.52
2022-12-23T17:47:33.767Z,1.60
2022-12-23T17:50:38.698Z,1.60
2022-12-23T17:53:44.180Z,1.60
2022-12-23T17:56:49.029Z,1.50
2022-12-23T17:59:57.355Z,1.35
2022-12-23T18:03:02.254Z,1.30
2022-12-23T18:06:08.968Z,1.63
2022-12-23T18:09:16.921Z,1.20
2022-12-23T18:12:30.875Z,1.65
2022-12-23T18:15:39.627Z,1.55
2022-12-23T18:18:46.845Z,1.52
2022-12-23T18:21:52.645Z,1.33
2022-12-23T18:24:59.600Z,1.60
2022-12-23T18:28:04.642Z,1.90
2022-12-23T18:31:16.744Z,1.30
2022-12-23T18:34:22.281Z,1.40
2022-12-23T18:37:27.626Z,1.20
2022-12-23T18:40:33.318Z,1.30
2022-12-23T18:43:38.616Z,1.58
2022-12-23T18:46:47.998Z,1.30
2022-12-23T18:49:53.490Z,1.33
2022-12-23T18:52:59.001Z,1.70
2022-12-23T18:56:04.191Z,2.65
2022-12-23T18:59:09.268Z,3.08
2022-12-23T19:02:17.602Z,2.80
2022-12-23T19:05:24.736Z,3.38
2022-12-23T19:08:30.061Z,3.85
2022-12-23T19:11:34.906Z,3.17
2022-12-23T19:14:42.805Z,3.75
2022-12-23T19:17:52.497Z,4.03
2022-12-23T19:20:57.710Z,3.67
2022-12-23T19:24:02.524Z,3.20
2022-12-23T19:27:07.777Z,2.75
2022-12-23T19:30:15.009Z,3.28
2022-12-23T19:33:22.920Z,3.67
2022-12-23T19:36:27.828Z,3.47
2022-12-23T19:39:33.246Z,3.83
2022-12-23T19:42:39.541Z,3.83
2022-12-23T19:45:44.864Z,3.97
2022-12-23T19:48:55.240Z,4.10
2022-12-23T19:52:00.590Z,3.65
2022-12-23T19:55:05.725Z,3.63
2022-12-23T19:58:11.660Z,3.60
2022-12-23T20:01:17.431Z,3.42
2022-12-23T20:04:26.425Z,3.83
2022-12-23T20:07:31.507Z,4.53
2022-12-23T20:10:36.812Z,4.43
2022-12-23T20:13:43.867Z,4.03
2022-12-23T20:16:49.527Z,4.10
2022-12-23T20:19:57.015Z,4.40
2022-12-23T20:23:02.567Z,4.45
2022-12-23T20:26:07.738Z,3.95
2022-12-23T20:29:13.061Z,4.53
2022-12-23T20:32:17.901Z,4.95
2022-12-23T20:35:25.773Z,4.90
2022-12-23T20:38:30.629Z,5.10
2022-12-23T20:41:38.687Z,5.00
2022-12-23T20:44:43.508Z,5.15
2022-12-23T20:47:49.115Z,4.95
2022-12-23T20:50:56.751Z,5.90
2022-12-23T20:54:02.247Z,5.38
2022-12-23T20:57:07.281Z,5.30
2022-12-23T21:00:13.264Z,5.57
2022-12-23T21:03:20.208Z,4.30
2022-12-23T21:06:28.883Z,4.50
2022-12-23T21:09:36.028Z,4.18
2022-12-23T21:12:43.792Z,5.18
2022-12-23T21:15:48.670Z,4.03
2022-12-23T21:18:53.875Z,4.63
2022-12-23T21:22:01.522Z,4.20
2022-12-23T21:25:07.104Z,4.50
2022-12-23T21:28:12.854Z,4.40
2022-12-23T21:31:20.947Z,4.88
2022-12-23T21:34:26.314Z,3.92
2022-12-23T21:37:34.869Z,4.65
2022-12-23T21:40:39.801Z,4.45
2022-12-23T21:43:45.592Z,4.45
2022-12-23T21:46:52.103Z,4.60
2022-12-23T21:49:57.341Z,4.55
2022-12-23T21:53:04.865Z,4.72
2022-12-23T21:56:11.804Z,4.88
2022-12-23T21:59:17.353Z,4.57
2022-12-23T22:02:22.546Z,14.50
2022-12-23T22:05:28.947Z,6.20
2022-12-23T22:08:36.735Z,4.57
2022-12-23T22:11:41.943Z,5.05
2022-12-23T22:14:47.219Z,4.65
2022-12-23T22:17:52.076Z,9.18
2022-12-23T22:20:57.323Z,10.60
2022-12-23T22:24:05.084Z,14.75
2022-12-23T22:27:10.311Z,15.18
2022-12-23T22:30:15.428Z,43.17
2022-12-23T22:33:21.291Z,37.55
2022-12-23T22:36:27.922Z,19.38
2022-12-23T22:39:35.991Z,14.68
2022-12-23T22:42:40.906Z,14.15
2022-12-23T22:45:46.273Z,6.05
2022-12-23T22:48:51.434Z,4.90
2022-12-23T22:51:57.213Z,4.75
2022-12-23T22:55:05.036Z,4.60
2022-12-23T22:58:12.628Z,4.03
2022-12-23T23:01:23.300Z,3.78
2022-12-23T23:04:28.760Z,4.22
2022-12-23T23:07:33.722Z,3.85
2022-12-23T23:10:41.717Z,4.65
2022-12-23T23:13:46.638Z,4.32
2022-12-23T23:16:51.942Z,3.95
2022-12-23T23:19:57.133Z,4.32
2022-12-23T23:23:02.558Z,4.53
2022-12-23T23:26:11.276Z,4.18
2022-12-23T23:29:18.457Z,4.40
2022-12-23T23:32:23.400Z,3.83
2022-12-23T23:35:30.680Z,3.88
2022-12-23T23:38:35.601Z,4.35
2022-12-23T23:41:43.936Z,3.85
2022-12-23T23:44:48.785Z,3.60
2022-12-23T23:47:54.020Z,4.13
2022-12-23T23:51:05.495Z,4.05
2022-12-23T23:54:11.374Z,3.75
2022-12-23T23:57:18.818Z,4.05
